Time;durP1;ratioP1;P1;durP2;ratioP2;P2;SDS_P1;SDS_P2;PMS_P1;PMS_P2;Temp;Humidity;BMP_temperature;BMP_pressure;BME280_temperature;BME280_humidity;BME280_pressure;Samples;Min_cycle;Max_cycle;Signal;HPM_P1;HPM_P2
2022/10/23 00:01:29;;;;;;;;;;;;;;;13.10;83.33;101317.63;5033012;28;20007;-58
2022/10/23 00:03:56;;;;;;;;;;;;;;;13.09;83.42;101316.78;5033466;28;20366;-58
2022/10/23 00:06:22;;;;;;;;;;;;;;;13.09;83.42;101314.13;5028976;28;20000;-58
2022/10/23 00:08:47;;;;;;;;;;;;;;;13.09;83.59;101315.97;5035508;28;20003;-59
2022/10/23 00:11:14;;;;;;;;;;;;;;;13.08;83.42;101317.81;5030126;28;19917;-58
2022/10/23 00:13:40;;;;;;;;;;;;;;;13.07;83.84;101305.47;5026298;28;19932;-58
2022/10/23 00:16:05;;;;;;;;;;;;;;;13.08;83.83;101316.97;5027696;28;19917;-58
2022/10/23 00:18:30;;;;;;;;;;;;;;;13.06;83.62;101306.47;5031564;28;19925;-58
2022/10/23 00:20:56;;;;;;;;;;;;;;;13.06;84.00;101308.31;5035746;28;19923;-58
2022/10/23 00:23:21;;;;;;;;;;;;;;;13.05;83.73;101302.16;5029857;28;19917;-58
2022/10/23 00:25:46;;;;;;;;;;;;;;;13.03;83.94;101302.34;5030269;28;19924;-58
2022/10/23 00:28:11;;;;;;;;;;;;;;;13.03;83.89;101307.66;5031449;28;19917;-58
2022/10/23 00:30:36;;;;;;;;;;;;;;;13.02;84.13;101307.84;5025178;28;19992;-58
2022/10/23 00:33:02;;;;;;;;;;;;;;;13.02;84.14;101313.19;5034939;28;20494;-58
2022/10/23 00:35:27;;;;;;;;;;;;;;;13.02;83.99;101310.50;5030292;28;19917;-57
2022/10/23 00:37:52;;;;;;;;;;;;;;;12.99;84.13;101308.16;5032616;28;19923;-58
2022/10/23 00:40:17;;;;;;;;;;;;;;;12.99;84.33;101313.50;5037265;28;19925;-58
2022/10/23 00:42:43;;;;;;;;;;;;;;;12.97;84.06;101312.84;5032222;28;19968;-58
2022/10/23 00:45:14;;;;;;;;;;;;;;;12.97;83.98;101311.00;5031907;28;19921;-57
2022/10/23 00:47:39;;;;;;;;;;;;;;;12.96;84.42;101311.19;5034908;28;20539;-58
2022/10/23 00:50:05;;;;;;;;;;;;;;;12.96;84.13;101305.84;5029022;28;19960;-57
2022/10/23 00:52:31;;;;;;;;;;;;;;;12.94;84.22;101306.03;5031723;28;19927;-58
2022/10/23 00:54:57;;;;;;;;;;;;;;;12.91;84.65;101298.38;5028233;28;20035;-58
2022/10/23 00:57:22;;;;;;;;;;;;;;;12.92;84.74;101304.53;5030671;28;20020;-58
2022/10/23 00:59:47;;;;;;;;;;;;;;;12.91;84.70;101308.22;5029082;28;19921;-57
2022/10/23 01:02:13;;;;;;;;;;;;;;;12.90;84.67;101304.72;5027968;28;19947;-58
2022/10/23 01:04:38;;;;;;;;;;;;;;;12.91;84.85;101300.22;5024113;28;20303;-58
2022/10/23 01:07:15;;;;;;;;;;;;;;;12.90;84.68;101307.38;5028171;28;19924;-58
2022/10/23 01:09:40;;;;;;;;;;;;;;;12.90;84.95;101299.38;5026664;28;19932;-58
2022/10/23 01:12:22;;;;;;;;;;;;;;;12.91;84.54;101297.56;5029645;28;19917;-58
2022/10/23 01:14:57;;;;;;;;;;;;;;;12.89;84.84;101299.56;5028038;28;20392;-58
2022/10/23 01:17:43;;;;;;;;;;;;;;;12.90;84.58;101293.22;5031475;28;20010;-57
2022/10/23 01:20:08;;;;;;;;;;;;;;;12.89;85.07;101287.06;5034830;28;19986;-58
2022/10/23 01:22:45;;;;;;;;;;;;;;;12.89;85.08;101294.22;5029465;28;19921;-58
2022/10/23 01:25:22;;;;;;;;;;;;;;;12.88;84.97;101290.75;5027039;28;19921;-58
2022/10/23 01:27:49;;;;;;;;;;;;;;;12.89;85.10;101296.91;5031659;28;20258;-58
2022/10/23 01:30:15;;;;;;;;;;;;;;;12.89;85.39;101286.25;5028933;28;19948;-57
2022/10/23 01:32:47;;;;;;;;;;;;;;;12.89;85.42;101287.06;5028532;28;19944;-58
2022/10/23 01:35:15;;;;;;;;;;;;;;;12.90;85.56;101293.22;5025626;28;19917;-58
2022/10/23 01:38:02;;;;;;;;;;;;;;;12.89;85.47;101289.72;5029513;28;19921;-58
2022/10/23 01:40:36;;;;;;;;;;;;;;;12.89;85.83;101288.91;5029388;28;19913;-57
2022/10/23 01:43:05;;;;;;;;;;;;;;;12.89;85.76;101283.56;5028136;28;19921;-58
2022/10/23 01:45:35;;;;;;;;;;;;;;;12.91;85.67;101284.22;5026428;28;19917;-58
2022/10/23 01:48:01;;;;;;;;;;;;;;;12.91;85.79;101276.22;5029878;28;19921;-57
2022/10/23 01:50:28;;;;;;;;;;;;;;;12.92;85.71;101272.56;5028431;28;20553;-58
2022/10/23 01:52:53;;;;;;;;;;;;;;;12.91;85.66;101257.56;5028164;28;19929;-58
2022/10/23 01:55:19;;;;;;;;;;;;;;;12.90;85.80;101256.75;5025943;28;19944;-59
2022/10/23 01:57:46;;;;;;;;;;;;;;;12.90;85.72;101255.91;5029469;28;19917;-58
2022/10/23 02:00:13;;;;;;;;;;;;;;;12.89;85.99;101254.25;5028874;28;19928;-58
2022/10/23 02:02:40;;;;;;;;;;;;;;;12.87;85.92;101246.44;5030344;28;19923;-57
2022/10/23 02:05:07;;;;;;;;;;;;;;;12.87;86.08;101246.44;5027253;28;19921;-58
2022/10/23 02:07:32;;;;;;;;;;;;;;;12.87;86.09;101249.09;5026257;28;19983;-58
2022/10/23 02:09:58;;;;;;;;;;;;;;;12.87;86.00;101253.59;5029983;28;20583;-58
2022/10/23 02:12:37;;;;;;;;;;;;;;;12.84;85.99;101249.44;5033617;28;19917;-59
2022/10/23 02:15:21;;;;;;;;;;;;;;;12.86;86.08;101254.59;5025525;28;19929;-58
2022/10/23 02:17:52;;;;;;;;;;;;;;;12.86;86.00;101249.28;5029652;28;19924;-58
2022/10/23 02:20:20;;;;;;;;;;;;;;;12.84;85.96;101240.63;5027696;28;20000;-58
2022/10/23 02:22:53;;;;;;;;;;;;;;;12.83;85.86;101241.63;5026852;28;19924;-58
2022/10/23 02:25:21;;;;;;;;;;;;;;;12.82;85.74;101245.31;5031259;28;19928;-58
2022/10/23 02:27:51;;;;;;;;;;;;;;;12.81;85.68;101248.97;5020006;28;20007;-58
2022/10/23 02:30:17;;;;;;;;;;;;;;;12.80;85.74;101241.97;5023246;28;19924;-57
2022/10/23 02:32:47;;;;;;;;;;;;;;;12.79;86.02;101235.00;5027585;28;19921;-57
2022/10/23 02:35:13;;;;;;;;;;;;;;;12.78;85.98;101231.50;5025294;28;20000;-57
2022/10/23 02:37:38;;;;;;;;;;;;;;;12.77;85.98;101231.69;5029956;28;20800;-57
2022/10/23 02:40:04;;;;;;;;;;;;;;;12.76;86.45;101227.34;5030941;28;19921;-58
2022/10/23 02:42:33;;;;;;;;;;;;;;;12.76;86.14;101219.34;5029420;28;20007;-57
2022/10/23 02:45:04;;;;;;;;;;;;;;;12.76;86.61;101216.69;5027984;28;20024;-58
2022/10/23 02:47:34;;;;;;;;;;;;;;;12.75;86.39;101205.19;5029847;28;19917;-57
2022/10/23 02:50:04;;;;;;;;;;;;;;;12.75;86.40;101193.72;5024517;28;20012;-58
2022/10/23 02:52:29;;;;;;;;;;;;;;;12.76;86.63;101190.88;5029345;28;19913;-58
2022/10/23 02:54:57;;;;;;;;;;;;;;;12.77;87.06;101186.38;5027240;28;20564;-58
2022/10/23 02:57:22;;;;;;;;;;;;;;;12.77;87.23;101176.53;5026699;28;19952;-58
2022/10/23 03:00:02;;;;;;;;;;;;;;;12.78;87.66;101169.38;5028955;28;19956;-58
2022/10/23 03:02:31;;;;;;;;;;;;;;;12.80;87.43;101178.84;5027469;28;19921;-58
2022/10/23 03:04:58;;;;;;;;;;;;;;;12.83;87.67;101170.50;5025213;28;20014;-58
2022/10/23 03:07:24;;;;;;;;;;;;;;;12.86;87.97;101163.97;5028211;28;19982;-57
2022/10/23 03:09:49;;;;;;;;;;;;;;;12.88;88.03;101161.97;5027742;28;19917;-58
2022/10/23 03:12:15;;;;;;;;;;;;;;;12.90;88.22;101154.63;5027001;28;19924;-57
2022/10/23 03:14:40;;;;;;;;;;;;;;;12.92;87.96;101157.94;5027308;28;20014;-58
2022/10/23 03:17:05;;;;;;;;;;;;;;;12.94;87.71;101145.25;5026175;28;20016;-58
2022/10/23 03:19:30;;;;;;;;;;;;;;;12.96;87.75;101145.91;5026158;28;19917;-58
2022/10/23 03:21:55;;;;;;;;;;;;;;;12.96;88.12;101153.91;5022373;28;19917;-58
2022/10/23 03:24:20;;;;;;;;;;;;;;;12.96;88.21;101148.56;5027749;28;19939;-58
2022/10/23 03:26:46;;;;;;;;;;;;;;;12.97;88.22;101144.88;5028891;28;19921;-58
2022/10/23 03:29:11;;;;;;;;;;;;;;;12.99;87.65;101135.69;5026443;28;19967;-59
2022/10/23 03:31:36;;;;;;;;;;;;;;;13.02;88.25;101142.53;5019289;28;20306;-59
2022/10/23 03:34:01;;;;;;;;;;;;;;;13.01;88.24;101132.88;5036871;28;19928;-58
2022/10/23 03:36:26;;;;;;;;;;;;;;;13.02;87.88;101130.03;5027074;28;20662;-59
2022/10/23 03:38:52;;;;;;;;;;;;;;;13.02;88.21;101122.03;5031664;28;19921;-58
2022/10/23 03:41:17;;;;;;;;;;;;;;;13.02;88.30;101126.53;5027164;28;20040;-58
2022/10/23 03:43:42;;;;;;;;;;;;;;;13.02;88.41;101118.56;5031775;28;19921;-59
2022/10/23 03:46:11;;;;;;;;;;;;;;;13.01;88.46;101119.56;5027478;28;19917;-58
2022/10/23 03:48:37;;;;;;;;;;;;;;;13.02;87.96;101113.22;5028797;28;19913;-58
2022/10/23 03:51:02;;;;;;;;;;;;;;;13.03;88.15;101122.88;5028309;28;19924;-58
2022/10/23 03:53:27;;;;;;;;;;;;;;;13.05;87.97;101122.69;5029098;28;20408;-57
2022/10/23 03:55:53;;;;;;;;;;;;;;;13.05;88.26;101118.19;5031386;28;20031;-59
2022/10/23 03:58:18;;;;;;;;;;;;;;;13.06;88.20;101111.03;5027511;28;19924;-58
2022/10/23 04:00:43;;;;;;;;;;;;;;;13.08;88.24;101115.16;5030249;28;19960;-56
2022/10/23 04:03:08;;;;;;;;;;;;;;;13.09;88.18;101108.81;5032024;28;19913;-57
2022/10/23 04:05:34;;;;;;;;;;;;;;;13.10;88.50;101099.81;5030082;28;19917;-57
2022/10/23 04:07:59;;;;;;;;;;;;;;;13.10;88.74;101107.81;5031507;28;19913;-58
2022/10/23 04:10:25;;;;;;;;;;;;;;;13.08;88.31;101093.81;5030806;28;19927;-58
2022/10/23 04:12:50;;;;;;;;;;;;;;;13.07;88.70;101094.00;5031790;28;19925;-59
2022/10/23 04:15:15;;;;;;;;;;;;;;;13.07;88.54;101083.34;5036012;28;19924;-57
2022/10/23 04:17:40;;;;;;;;;;;;;;;13.06;88.29;101085.19;5032237;28;19912;-57
2022/10/23 04:20:05;;;;;;;;;;;;;;;13.05;88.80;101078.19;5029968;28;19917;-57
2022/10/23 04:22:31;;;;;;;;;;;;;;;13.06;88.72;101071.84;5030631;28;20036;-57
2022/10/23 04:24:56;;;;;;;;;;;;;;;13.06;88.82;101077.19;5028790;28;19944;-56
2022/10/23 04:27:21;;;;;;;;;;;;;;;13.05;89.38;101078.19;5027662;28;19956;-58
2022/10/23 04:29:46;;;;;;;;;;;;;;;13.05;88.98;101072.84;5023884;28;19917;-58
2022/10/23 04:32:11;;;;;;;;;;;;;;;13.06;88.76;101081.69;5028584;28;19925;-59
2022/10/23 04:34:36;;;;;;;;;;;;;;;13.07;88.96;101080.69;5024540;28;19921;-57
2022/10/23 04:37:02;;;;;;;;;;;;;;;13.07;88.58;101070.84;5023636;28;19944;-57
2022/10/23 04:39:28;;;;;;;;;;;;;;;13.08;88.79;101072.50;5027372;28;19917;-58
2022/10/23 04:41:53;;;;;;;;;;;;;;;13.09;88.51;101073.31;5027646;28;19921;-59
2022/10/23 04:44:18;;;;;;;;;;;;;;;13.09;88.71;101066.16;5030050;28;19948;-58
2022/10/23 04:46:43;;;;;;;;;;;;;;;13.09;88.67;101070.66;5026469;28;19921;-58
2022/10/23 04:49:08;;;;;;;;;;;;;;;13.09;88.55;101068.00;5030229;28;20032;-58
2022/10/23 04:51:34;;;;;;;;;;;;;;;13.08;88.29;101072.50;5024055;28;20317;-57
2022/10/23 04:53:59;;;;;;;;;;;;;;;13.09;88.91;101068.81;5027331;28;19963;-58
2022/10/23 04:56:24;;;;;;;;;;;;;;;13.09;88.78;101068.00;5026636;28;20003;-58
2022/10/23 04:58:50;;;;;;;;;;;;;;;13.09;88.37;101068.00;5020676;28;20507;-58
2022/10/23 05:01:15;;;;;;;;;;;;;;;13.07;88.52;101062.84;5024558;28;19925;-58
2022/10/23 05:03:40;;;;;;;;;;;;;;;13.07;88.35;101067.34;5033412;28;20284;-59
2022/10/23 05:06:05;;;;;;;;;;;;;;;13.06;88.54;101058.53;5030963;28;19917;-58
2022/10/23 05:08:31;;;;;;;;;;;;;;;13.02;88.77;101058.06;5030662;28;20289;-58
2022/10/23 05:10:56;;;;;;;;;;;;;;;13.03;88.84;101061.56;5028545;28;19921;-58
2022/10/23 05:13:22;;;;;;;;;;;;;;;13.01;89.11;101063.56;5030924;28;19920;-58
2022/10/23 05:15:48;;;;;;;;;;;;;;;12.99;88.78;101053.06;5027387;28;19925;-59
2022/10/23 05:18:16;;;;;;;;;;;;;;;12.98;88.55;101050.56;5031795;28;20004;-58
2022/10/23 05:20:44;;;;;;;;;;;;;;;12.95;88.99;101041.09;5020848;28;20288;-58
2022/10/23 05:23:10;;;;;;;;;;;;;;;12.94;88.59;101049.28;5021444;28;20384;-58
2022/10/23 05:25:35;;;;;;;;;;;;;;;12.93;88.99;101045.78;5026615;28;20027;-58
2022/10/23 05:28:00;;;;;;;;;;;;;;;12.93;89.10;101047.63;5027645;28;19996;-58
2022/10/23 05:30:26;;;;;;;;;;;;;;;12.91;88.79;101050.47;5022914;28;19974;-58
2022/10/23 05:32:51;;;;;;;;;;;;;;;12.91;89.06;101044.31;5027961;28;20297;-58
2022/10/23 05:35:18;;;;;;;;;;;;;;;12.90;89.02;101043.50;5029691;28;19925;-58
2022/10/23 05:37:44;;;;;;;;;;;;;;;12.89;89.27;101041.84;5030048;28;20380;-58
2022/10/23 05:40:09;;;;;;;;;;;;;;;12.90;89.15;101040.00;5028946;28;19924;-58
2022/10/23 05:42:34;;;;;;;;;;;;;;;12.91;89.25;101041.66;5029535;28;19921;-58
2022/10/23 05:45:00;;;;;;;;;;;;;;;12.91;89.24;101039.81;5026310;28;19974;-58
2022/10/23 05:47:25;;;;;;;;;;;;;;;12.91;89.54;101037.16;5028263;28;19921;-57
2022/10/23 05:49:50;;;;;;;;;;;;;;;12.92;89.57;101041.47;5029678;28;19917;-59
2022/10/23 05:52:15;;;;;;;;;;;;;;;12.93;89.45;101028.97;5035040;28;19953;-58
2022/10/23 05:54:40;;;;;;;;;;;;;;;12.93;89.58;101032.47;5035869;28;20498;-59
2022/10/23 05:57:06;;;;;;;;;;;;;;;12.92;89.95;101022.81;5027751;28;20287;-58
2022/10/23 05:59:31;;;;;;;;;;;;;;;12.92;89.88;101017.47;5030038;28;19917;-58
2022/10/23 06:01:56;;;;;;;;;;;;;;;12.93;89.54;101021.81;5028892;28;19925;-58
2022/10/23 06:04:21;;;;;;;;;;;;;;;12.92;89.32;101020.16;5030625;28;19970;-57
2022/10/23 06:06:46;;;;;;;;;;;;;;;12.93;89.93;101015.63;5030167;28;20066;-57
2022/10/23 06:09:12;;;;;;;;;;;;;;;12.92;89.71;101014.81;5027024;28;19944;-56
2022/10/23 06:11:38;;;;;;;;;;;;;;;12.93;89.71;101020.97;5031138;28;19929;-57
2022/10/23 06:14:03;;;;;;;;;;;;;;;12.92;89.52;101004.16;5028771;28;20304;-59
2022/10/23 06:16:28;;;;;;;;;;;;;;;12.92;90.10;101006.00;5023424;28;19922;-58
2022/10/23 06:18:54;;;;;;;;;;;;;;;12.91;90.24;100994.50;5026412;28;19948;-58
2022/10/23 06:21:19;;;;;;;;;;;;;;;12.91;90.32;100994.50;5028832;28;19913;-57
2022/10/23 06:23:44;;;;;;;;;;;;;;;12.91;90.30;100991.84;5026602;28;19925;-55
2022/10/23 06:26:11;;;;;;;;;;;;;;;12.91;90.52;100993.66;5028348;28;20179;-58
2022/10/23 06:28:37;;;;;;;;;;;;;;;12.92;90.33;101003.31;5030947;28;20015;-58
2022/10/23 06:31:06;;;;;;;;;;;;;;;12.91;90.20;100994.50;5027554;28;19976;-58
2022/10/23 06:33:31;;;;;;;;;;;;;;;12.91;90.36;100994.50;5027522;28;19920;-58
2022/10/23 06:35:56;;;;;;;;;;;;;;;12.92;90.18;100996.16;5026102;28;19917;-58
2022/10/23 06:38:22;;;;;;;;;;;;;;;12.93;89.50;100989.81;5025718;28;19926;-58
2022/10/23 06:40:54;;;;;;;;;;;;;;;12.92;89.64;100984.66;5023077;28;19917;-58
2022/10/23 06:43:19;;;;;;;;;;;;;;;12.91;89.94;100986.50;5021387;28;20385;-58
2022/10/23 06:45:44;;;;;;;;;;;;;;;12.92;90.18;100982.81;5024128;28;19913;-57
2022/10/23 06:48:10;;;;;;;;;;;;;;;12.91;90.10;100975.84;5031196;28;19917;-58
2022/10/23 06:50:35;;;;;;;;;;;;;;;12.91;90.67;100967.00;5021869;28;19921;-58
2022/10/23 06:53:01;;;;;;;;;;;;;;;12.89;90.54;100969.88;5026168;28;19921;-57
2022/10/23 06:55:26;;;;;;;;;;;;;;;12.90;91.00;100968.84;5028885;28;19917;-58
2022/10/23 06:57:52;;;;;;;;;;;;;;;12.91;91.25;100972.34;5027712;28;20743;-58
2022/10/23 07:00:17;;;;;;;;;;;;;;;12.91;91.30;100970.50;5027938;28;20012;-58
2022/10/23 07:02:42;;;;;;;;;;;;;;;12.92;91.29;100969.50;5026452;28;19913;-56
2022/10/23 07:05:08;;;;;;;;;;;;;;;12.94;91.09;100971.97;5029777;28;19987;-57
2022/10/23 07:07:33;;;;;;;;;;;;;;;12.96;90.99;100972.63;5031275;28;19913;-57
2022/10/23 07:09:58;;;;;;;;;;;;;;;12.98;90.65;100973.25;5030086;28;19967;-57
2022/10/23 07:12:23;;;;;;;;;;;;;;;13.01;90.46;100981.75;5030517;28;19917;-56
2022/10/23 07:14:49;;;;;;;;;;;;;;;13.02;90.10;100980.75;5029659;28;19955;-56
2022/10/23 07:17:14;;;;;;;;;;;;;;;13.05;90.31;100982.22;5035222;28;19959;-56
2022/10/23 07:19:39;;;;;;;;;;;;;;;13.06;90.30;100967.88;5023995;28;19917;-58
2022/10/23 07:22:04;;;;;;;;;;;;;;;13.08;90.76;100968.50;5031280;28;19936;-56
2022/10/23 07:24:30;;;;;;;;;;;;;;;13.10;90.70;100957.66;5028991;28;20011;-57
2022/10/23 07:26:57;;;;;;;;;;;;;;;13.10;90.78;100966.50;5019396;28;19913;-57
2022/10/23 07:29:22;;;;;;;;;;;;;;;13.12;90.43;100953.78;5026561;28;19927;-55
2022/10/23 07:31:47;;;;;;;;;;;;;;;13.14;91.20;100950.94;5027131;28;20564;-57
2022/10/23 07:34:12;;;;;;;;;;;;;;;13.16;91.16;100951.59;5026127;28;20369;-57
2022/10/23 07:36:37;;;;;;;;;;;;;;;13.17;91.00;100946.09;5027523;28;19917;-56
2022/10/23 07:39:02;;;;;;;;;;;;;;;13.20;91.35;100947.56;5026770;28;19967;-57
2022/10/23 07:41:28;;;;;;;;;;;;;;;13.22;91.25;100943.69;5030843;28;19917;-56
2022/10/23 07:43:53;;;;;;;;;;;;;;;13.25;91.05;100950.50;5033188;28;19921;-56
2022/10/23 07:46:18;;;;;;;;;;;;;;;13.27;91.25;100948.47;5030163;28;19979;-56
2022/10/23 07:48:43;;;;;;;;;;;;;;;13.28;91.07;100937.63;5027804;28;19921;-57
2022/10/23 07:51:13;;;;;;;;;;;;;;;13.31;90.94;100945.28;5025901;28;20436;-57
2022/10/23 07:53:38;;;;;;;;;;;;;;;13.35;91.05;100935.06;5027563;28;19913;-56
2022/10/23 07:56:14;;;;;;;;;;;;;;;13.38;91.02;100933.84;5027748;28;19987;-57
2022/10/23 07:58:39;;;;;;;;;;;;;;;13.40;90.68;100937.97;5026364;28;19917;-56
2022/10/23 08:01:11;;;;;;;;;;;;;;;13.43;91.05;100926.94;5025968;28;19917;-56
2022/10/23 08:03:37;;;;;;;;;;;;;;;13.47;90.67;100928.22;5023544;28;19924;-56
2022/10/23 08:06:02;;;;;;;;;;;;;;;13.52;90.94;100924.97;5022769;28;20296;-57
2022/10/23 08:08:27;;;;;;;;;;;;;;;13.54;90.55;100929.13;5025484;28;19929;-58
2022/10/23 08:10:53;;;;;;;;;;;;;;;13.58;90.75;100921.56;5026250;28;19932;-58
2022/10/23 08:13:19;;;;;;;;;;;;;;;13.62;90.42;100922.84;5028969;28;19923;-57
2022/10/23 08:15:45;;;;;;;;;;;;;;;13.65;90.72;100919.81;5029894;28;19917;-57
2022/10/23 08:18:10;;;;;;;;;;;;;;;13.69;90.65;100926.41;5035821;28;19958;-58
2022/10/23 08:20:39;;;;;;;;;;;;;;;13.73;91.06;100918.84;5030210;28;20000;-57
2022/10/23 08:23:04;;;;;;;;;;;;;;;13.78;90.76;100917.25;5036713;28;20401;-57
2022/10/23 08:25:29;;;;;;;;;;;;;;;13.83;90.80;100906.00;5031793;28;20389;-57
2022/10/23 08:27:55;;;;;;;;;;;;;;;13.89;90.90;100918.63;5031237;28;19912;-58
2022/10/23 08:30:20;;;;;;;;;;;;;;;13.93;90.48;100915.38;5030057;28;19948;-57
2022/10/23 08:32:45;;;;;;;;;;;;;;;13.97;90.17;100913.16;5041706;28;19913;-57
2022/10/23 08:35:10;;;;;;;;;;;;;;;14.01;90.42;100914.41;5036742;28;19940;-58
2022/10/23 08:37:35;;;;;;;;;;;;;;;14.04;89.81;100911.38;5030343;28;19913;-57
2022/10/23 08:40:00;;;;;;;;;;;;;;;14.08;89.86;100903.78;5029559;28;19975;-57
2022/10/23 08:42:26;;;;;;;;;;;;;;;14.10;90.38;100899.09;5022701;28;20695;-57
2022/10/23 08:44:57;;;;;;;;;;;;;;;14.12;90.22;100907.72;5029349;28;19963;-58
2022/10/23 08:47:27;;;;;;;;;;;;;;;14.14;90.11;100903.03;5031248;28;20518;-58
2022/10/23 08:49:54;;;;;;;;;;;;;;;14.13;90.13;100888.84;5030563;28;19924;-58
2022/10/23 08:52:25;;;;;;;;;;;;;;;14.15;90.14;100891.31;5022671;28;20351;-57
2022/10/23 08:54:59;;;;;;;;;;;;;;;14.16;89.80;100896.47;5028290;28;20295;-58
2022/10/23 08:57:32;;;;;;;;;;;;;;;14.19;90.00;100882.75;5029225;28;19917;-58
2022/10/23 08:59:59;;;;;;;;;;;;;;;14.20;90.11;100887.06;5028611;28;19917;-57
2022/10/23 09:02:24;;;;;;;;;;;;;;;14.23;90.15;100886.69;5028286;28;20431;-57
2022/10/23 09:04:50;;;;;;;;;;;;;;;14.26;90.14;100885.47;5038708;28;19916;-57
2022/10/23 09:07:18;;;;;;;;;;;;;;;14.27;90.58;100882.59;5029913;28;20024;-58
2022/10/23 09:10:02;;;;;;;;;;;;;;;14.29;90.39;100877.06;5029629;28;19979;-56
2022/10/23 09:12:28;;;;;;;;;;;;;;;14.32;90.55;100882.03;5027635;28;20392;-57
2022/10/23 09:15:11;;;;;;;;;;;;;;;14.34;90.54;100871.97;5030648;28;19967;-58
2022/10/23 09:17:39;;;;;;;;;;;;;;;14.35;89.97;100857.59;5023640;28;19913;-57
2022/10/23 09:20:05;;;;;;;;;;;;;;;14.36;89.98;100859.22;5021041;28;19967;-58
2022/10/23 09:22:30;;;;;;;;;;;;;;;14.38;89.85;100846.50;5029056;28;19960;-58
2022/10/23 09:24:55;;;;;;;;;;;;;;;14.40;89.85;100844.47;5026632;28;19921;-57
2022/10/23 09:27:21;;;;;;;;;;;;;;;14.45;89.34;100850.06;5029811;28;19927;-58
2022/10/23 09:29:48;;;;;;;;;;;;;;;14.48;89.79;100844.34;5028062;28;19964;-57
2022/10/23 09:32:13;;;;;;;;;;;;;;;14.52;89.52;100839.44;5028701;28;19925;-56
2022/10/23 09:34:48;;;;;;;;;;;;;;;14.54;89.95;100846.25;5029483;28;19917;-56
2022/10/23 09:37:22;;;;;;;;;;;;;;;14.59;89.60;100842.97;5028423;28;19996;-56
2022/10/23 09:39:47;;;;;;;;;;;;;;;14.61;89.79;100846.28;5034056;28;20522;-57
2022/10/23 09:42:23;;;;;;;;;;;;;;;14.63;89.82;100832.72;5037328;28;19920;-57
2022/10/23 09:44:50;;;;;;;;;;;;;;;14.66;89.94;100826.97;5026882;28;19967;-58
2022/10/23 09:47:18;;;;;;;;;;;;;;;14.68;89.64;100822.25;5023363;28;19966;-58
2022/10/23 09:49:47;;;;;;;;;;;;;;;14.71;89.60;100817.31;5026245;28;19924;-58
2022/10/23 09:52:12;;;;;;;;;;;;;;;14.74;89.63;100816.09;5028620;28;19928;-57
2022/10/23 09:54:43;;;;;;;;;;;;;;;14.79;89.78;100817.19;5028905;28;19917;-57
2022/10/23 09:57:28;;;;;;;;;;;;;;;14.83;89.47;100813.09;5026467;28;19920;-55
2022/10/23 10:00:05;;;;;;;;;;;;;;;14.85;89.58;100799.53;5026220;28;19952;-57
2022/10/23 10:02:33;;;;;;;;;;;;;;;14.87;89.42;100792.94;5028165;28;20003;-56
2022/10/23 10:04:58;;;;;;;;;;;;;;;14.91;89.26;100788.00;5029760;28;20405;-57
2022/10/23 10:07:25;;;;;;;;;;;;;;;14.94;89.26;100798.31;5029124;28;20012;-58
2022/10/23 10:09:54;;;;;;;;;;;;;;;14.97;89.41;100794.41;5022454;28;19936;-57
2022/10/23 10:12:36;;;;;;;;;;;;;;;14.98;89.20;100783.50;5029008;28;19923;-58
2022/10/23 10:15:13;;;;;;;;;;;;;;;15.01;89.09;100785.78;5028188;28;20024;-57
2022/10/23 10:17:57;;;;;;;;;;;;;;;15.04;89.07;100777.38;5031516;28;20019;-57
2022/10/23 10:20:46;;;;;;;;;;;;;;;15.09;89.20;100777.59;5027170;28;19921;-58
2022/10/23 10:23:14;;;;;;;;;;;;;;;15.12;88.71;100771.84;5015825;28;20458;-57
2022/10/23 10:25:52;;;;;;;;;;;;;;;15.17;88.83;100757.84;5024443;28;19936;-57
2022/10/23 10:28:28;;;;;;;;;;;;;;;15.23;89.08;100754.38;5023543;28;19917;-58
2022/10/23 10:31:07;;;;;;;;;;;;;;;15.28;89.18;100756.44;5023930;28;19954;-57
2022/10/23 10:33:52;;;;;;;;;;;;;;;15.33;88.86;100762.00;5023825;28;19917;-58
2022/10/23 10:36:26;;;;;;;;;;;;;;;15.39;88.86;100753.16;5031170;28;19917;-57
2022/10/23 10:38:54;;;;;;;;;;;;;;;15.44;88.94;100751.53;5024688;28;19928;-57
2022/10/23 10:41:26;;;;;;;;;;;;;;;15.50;88.67;100749.88;5023078;28;19913;-55
2022/10/23 10:43:51;;;;;;;;;;;;;;;15.55;88.62;100746.56;5023185;28;19921;-57
2022/10/23 10:46:22;;;;;;;;;;;;;;;15.61;88.45;100762.69;5018216;28;19921;-57
2022/10/23 10:49:11;;;;;;;;;;;;;;;15.67;88.36;100758.38;5023319;28;19987;-58
2022/10/23 10:51:43;;;;;;;;;;;;;;;15.73;88.38;100755.69;5014564;28;19964;-58
2022/10/23 10:54:26;;;;;;;;;;;;;;;15.80;88.10;100743.09;5031636;28;19943;-55
2022/10/23 10:56:52;;;;;;;;;;;;;;;15.84;87.62;100738.16;5027358;28;19940;-56
2022/10/23 10:59:20;;;;;;;;;;;;;;;15.88;87.53;100734.03;5031490;28;19913;-57
2022/10/23 11:01:51;;;;;;;;;;;;;;;15.93;87.46;100728.06;5028377;28;20448;-58
2022/10/23 11:04:25;;;;;;;;;;;;;;;15.99;87.37;100727.25;5022630;28;20385;-57
2022/10/23 11:06:52;;;;;;;;;;;;;;;16.04;87.15;100717.53;5023473;28;19944;-57
2022/10/23 11:09:23;;;;;;;;;;;;;;;16.09;87.07;100728.44;5023724;28;20003;-57
2022/10/23 11:11:49;;;;;;;;;;;;;;;16.16;86.89;100706.16;5022494;28;19925;-57
2022/10/23 11:14:16;;;;;;;;;;;;;;;16.22;86.48;100708.03;5023159;28;19996;-57
2022/10/23 11:16:44;;;;;;;;;;;;;;;16.24;86.69;100708.63;5020122;28;20015;-57
2022/10/23 11:19:27;;;;;;;;;;;;;;;16.28;86.37;100688.41;5020139;28;20016;-56
2022/10/23 11:22:10;;;;;;;;;;;;;;;16.32;86.43;100693.13;5032432;28;19933;-57
2022/10/23 11:24:37;;;;;;;;;;;;;;;16.36;86.08;100674.78;5024370;28;19917;-57
2022/10/23 11:27:05;;;;;;;;;;;;;;;16.38;86.04;100662.81;5024749;28;20472;-56
2022/10/23 11:29:33;;;;;;;;;;;;;;;16.43;85.82;100679.06;5026198;28;20381;-57
2022/10/23 11:32:10;;;;;;;;;;;;;;;16.47;85.70;100684.00;5028304;28;19925;-57
2022/10/23 11:34:38;;;;;;;;;;;;;;;16.53;85.56;100684.00;5027718;28;20379;-57
2022/10/23 11:37:03;;;;;;;;;;;;;;;16.58;85.75;100686.03;5027831;28;19921;-57
2022/10/23 11:39:29;;;;;;;;;;;;;;;16.64;85.59;100675.25;5028662;28;19924;-57
2022/10/23 11:41:58;;;;;;;;;;;;;;;16.70;85.64;100671.75;5030441;28;19920;-57
2022/10/23 11:44:33;;;;;;;;;;;;;;;16.80;85.71;100657.88;5032431;28;19913;-57
2022/10/23 11:46:59;;;;;;;;;;;;;;;16.88;85.47;100652.25;5033388;28;20396;-58
2022/10/23 11:49:24;;;;;;;;;;;;;;;16.94;85.35;100637.16;5026500;28;19920;-58
2022/10/23 11:52:00;;;;;;;;;;;;;;;16.99;85.37;100631.94;5028181;28;20370;-56
2022/10/23 11:54:26;;;;;;;;;;;;;;;17.07;84.97;100633.56;5028232;28;20384;-57
2022/10/23 11:57:06;;;;;;;;;;;;;;;17.13;84.79;100624.63;5033426;28;19951;-58
2022/10/23 11:59:52;;;;;;;;;;;;;;;17.16;84.30;100624.19;5023240;28;20430;-57
2022/10/23 12:02:26;;;;;;;;;;;;;;;17.18;84.47;100630.16;5027613;28;20532;-57
2022/10/23 12:04:53;;;;;;;;;;;;;;;17.21;84.31;100624.34;5021668;28;20294;-56
2022/10/23 12:07:22;;;;;;;;;;;;;;;17.23;84.18;100617.72;5029998;28;19924;-58
2022/10/23 12:09:53;;;;;;;;;;;;;;;17.27;84.29;100631.53;5030997;28;19917;-57
2022/10/23 12:12:34;;;;;;;;;;;;;;;17.31;84.26;100633.53;5027751;28;19996;-58
2022/10/23 12:15:25;;;;;;;;;;;;;;;17.32;84.21;100627.13;5031809;28;19913;-58
2022/10/23 12:17:53;;;;;;;;;;;;;;;17.36;84.30;100622.19;5033708;28;19917;-58
2022/10/23 12:20:36;;;;;;;;;;;;;;;17.39;83.61;100612.84;5031364;28;20339;-57
2022/10/23 12:23:02;;;;;;;;;;;;;;;17.42;83.82;100615.09;5031520;28;19960;-57
2022/10/23 12:25:46;;;;;;;;;;;;;;;17.43;83.35;100614.88;5033413;28;19974;-57
2022/10/23 12:28:26;;;;;;;;;;;;;;;17.46;83.39;100605.56;5024520;28;19925;-58
2022/10/23 12:30:55;;;;;;;;;;;;;;;17.48;83.28;100604.28;5026040;28;20007;-56
2022/10/23 12:33:38;;;;;;;;;;;;;;;17.50;83.14;100607.56;5030454;28;20522;-57
2022/10/23 12:36:03;;;;;;;;;;;;;;;17.53;83.35;100593.69;5029567;28;19925;-58
2022/10/23 12:38:29;;;;;;;;;;;;;;;17.55;83.30;100586.25;5032515;28;19913;-57
2022/10/23 12:41:14;;;;;;;;;;;;;;;17.58;82.94;100585.78;5029494;28;20399;-57